sensor_id;sensor_type;location;lat;lon;timestamp;P1;durP1;ratioP1;P2;durP2;ratioP2
4583;SDS011;2304;47.606;12.186;2023-11-22T00:04:14;3.00;;;1.83;;
4583;SDS011;2304;47.606;12.186;2023-11-22T00:09:17;5.47;;;2.60;;
4583;SDS011;2304;47.606;12.186;2023-11-22T00:14:22;3.97;;;2.47;;
4583;SDS011;2304;47.606;12.186;2023-11-22T00:19:24;5.47;;;2.20;;
4583;SDS011;2304;47.606;12.186;2023-11-22T00:24:27;4.17;;;2.10;;
4583;SDS011;2304;47.606;12.186;2023-11-22T00:29:30;5.33;;;2.10;;
4583;SDS011;2304;47.606;12.186;2023-11-22T00:34:32;2.80;;;2.00;;
4583;SDS011;2304;47.606;12.186;2023-11-22T00:39:35;2.77;;;1.67;;
4583;SDS011;2304;47.606;12.186;2023-11-22T00:44:37;2.53;;;1.43;;
4583;SDS011;2304;47.606;12.186;2023-11-22T00:49:38;4.37;;;2.40;;
4583;SDS011;2304;47.606;12.186;2023-11-22T00:54:42;3.63;;;2.20;;
4583;SDS011;2304;47.606;12.186;2023-11-22T00:59:43;3.33;;;2.40;;
4583;SDS011;2304;47.606;12.186;2023-11-22T01:04:45;2.80;;;1.90;;
4583;SDS011;2304;47.606;12.186;2023-11-22T01:09:48;2.80;;;1.70;;
4583;SDS011;2304;47.606;12.186;2023-11-22T01:14:50;4.63;;;2.20;;
4583;SDS011;2304;47.606;12.186;2023-11-22T01:19:52;3.00;;;1.27;;
4583;SDS011;2304;47.606;12.186;2023-11-22T01:24:55;3.50;;;1.70;;
4583;SDS011;2304;47.606;12.186;2023-11-22T01:29:57;3.13;;;2.10;;
4583;SDS011;2304;47.606;12.186;2023-11-22T01:34:59;2.13;;;1.33;;
4583;SDS011;2304;47.606;12.186;2023-11-22T01:40:02;5.10;;;1.50;;
4583;SDS011;2304;47.606;12.186;2023-11-22T01:45:05;2.47;;;1.77;;
4583;SDS011;2304;47.606;12.186;2023-11-22T01:50:07;2.63;;;1.30;;
4583;SDS011;2304;47.606;12.186;2023-11-22T01:55:11;1.73;;;1.00;;
4583;SDS011;2304;47.606;12.186;2023-11-22T02:00:16;3.13;;;1.20;;
4583;SDS011;2304;47.606;12.186;2023-11-22T02:05:19;2.20;;;1.00;;
4583;SDS011;2304;47.606;12.186;2023-11-22T02:10:22;3.00;;;1.17;;
4583;SDS011;2304;47.606;12.186;2023-11-22T02:15:24;2.20;;;1.00;;
4583;SDS011;2304;47.606;12.186;2023-11-22T02:20:28;2.17;;;1.00;;
4583;SDS011;2304;47.606;12.186;2023-11-22T02:25:31;1.70;;;1.10;;
4583;SDS011;2304;47.606;12.186;2023-11-22T02:30:33;2.30;;;1.00;;
4583;SDS011;2304;47.606;12.186;2023-11-22T02:35:35;2.20;;;1.30;;
4583;SDS011;2304;47.606;12.186;2023-11-22T02:40:39;2.10;;;1.27;;
4583;SDS011;2304;47.606;12.186;2023-11-22T02:45:40;4.43;;;1.40;;
4583;SDS011;2304;47.606;12.186;2023-11-22T02:50:43;3.70;;;1.20;;
4583;SDS011;2304;47.606;12.186;2023-11-22T02:55:46;1.90;;;1.30;;
4583;SDS011;2304;47.606;12.186;2023-11-22T03:00:49;3.60;;;1.40;;
4583;SDS011;2304;47.606;12.186;2023-11-22T03:05:54;3.20;;;1.70;;
4583;SDS011;2304;47.606;12.186;2023-11-22T03:10:58;2.77;;;1.50;;
4583;SDS011;2304;47.606;12.186;2023-11-22T03:15:59;4.40;;;1.80;;
4583;SDS011;2304;47.606;12.186;2023-11-22T03:21:03;2.73;;;1.70;;
4583;SDS011;2304;47.606;12.186;2023-11-22T03:26:07;2.20;;;1.50;;
4583;SDS011;2304;47.606;12.186;2023-11-22T03:31:09;4.33;;;1.93;;
4583;SDS011;2304;47.606;12.186;2023-11-22T03:36:11;5.30;;;1.60;;
4583;SDS011;2304;47.606;12.186;2023-11-22T03:41:14;2.77;;;1.80;;
4583;SDS011;2304;47.606;12.186;2023-11-22T03:46:17;2.87;;;1.73;;
4583;SDS011;2304;47.606;12.186;2023-11-22T03:51:18;2.90;;;2.07;;
4583;SDS011;2304;47.606;12.186;2023-11-22T03:56:22;4.50;;;2.27;;
4583;SDS011;2304;47.606;12.186;2023-11-22T04:01:23;2.60;;;2.00;;
4583;SDS011;2304;47.606;12.186;2023-11-22T04:06:25;3.07;;;2.10;;
4583;SDS011;2304;47.606;12.186;2023-11-22T04:11:29;3.77;;;2.80;;
4583;SDS011;2304;47.606;12.186;2023-11-22T04:16:31;3.87;;;2.90;;
4583;SDS011;2304;47.606;12.186;2023-11-22T04:21:32;4.60;;;2.87;;
4583;SDS011;2304;47.606;12.186;2023-11-22T04:26:36;4.33;;;3.10;;
4583;SDS011;2304;47.606;12.186;2023-11-22T04:31:37;4.33;;;2.83;;
4583;SDS011;2304;47.606;12.186;2023-11-22T04:36:39;3.73;;;2.80;;
4583;SDS011;2304;47.606;12.186;2023-11-22T04:41:43;3.60;;;2.80;;
4583;SDS011;2304;47.606;12.186;2023-11-22T04:46:44;4.00;;;3.07;;
4583;SDS011;2304;47.606;12.186;2023-11-22T04:51:46;5.30;;;3.40;;
4583;SDS011;2304;47.606;12.186;2023-11-22T04:56:51;4.63;;;3.13;;
4583;SDS011;2304;47.606;12.186;2023-11-22T05:01:53;5.87;;;3.67;;
4583;SDS011;2304;47.606;12.186;2023-11-22T05:06:55;4.63;;;3.30;;
4583;SDS011;2304;47.606;12.186;2023-11-22T05:11:58;6.43;;;4.23;;
4583;SDS011;2304;47.606;12.186;2023-11-22T05:17:00;6.07;;;4.43;;
4583;SDS011;2304;47.606;12.186;2023-11-22T05:22:02;5.53;;;4.30;;
4583;SDS011;2304;47.606;12.186;2023-11-22T05:27:06;5.90;;;4.60;;
4583;SDS011;2304;47.606;12.186;2023-11-22T05:32:07;5.27;;;3.70;;
4583;SDS011;2304;47.606;12.186;2023-11-22T05:37:09;4.93;;;3.33;;
4583;SDS011;2304;47.606;12.186;2023-11-22T05:42:12;4.57;;;3.20;;
4583;SDS011;2304;47.606;12.186;2023-11-22T05:47:14;5.40;;;3.80;;
4583;SDS011;2304;47.606;12.186;2023-11-22T05:52:18;7.87;;;5.43;;
4583;SDS011;2304;47.606;12.186;2023-11-22T05:57:23;7.53;;;5.07;;
4583;SDS011;2304;47.606;12.186;2023-11-22T06:02:25;6.80;;;5.13;;
4583;SDS011;2304;47.606;12.186;2023-11-22T06:07:27;7.07;;;4.80;;
4583;SDS011;2304;47.606;12.186;2023-11-22T06:12:30;7.13;;;4.87;;
4583;SDS011;2304;47.606;12.186;2023-11-22T06:17:32;6.70;;;5.50;;
4583;SDS011;2304;47.606;12.186;2023-11-22T06:22:34;7.10;;;4.60;;
4583;SDS011;2304;47.606;12.186;2023-11-22T06:27:42;6.70;;;4.53;;
4583;SDS011;2304;47.606;12.186;2023-11-22T06:32:44;6.23;;;4.67;;
4583;SDS011;2304;47.606;12.186;2023-11-22T06:37:45;6.23;;;4.13;;
4583;SDS011;2304;47.606;12.186;2023-11-22T06:42:49;5.40;;;3.70;;
4583;SDS011;2304;47.606;12.186;2023-11-22T06:47:51;4.73;;;3.33;;
4583;SDS011;2304;47.606;12.186;2023-11-22T06:52:53;5.93;;;4.30;;
4583;SDS011;2304;47.606;12.186;2023-11-22T06:57:56;6.30;;;4.20;;
4583;SDS011;2304;47.606;12.186;2023-11-22T07:02:58;6.07;;;4.73;;
4583;SDS011;2304;47.606;12.186;2023-11-22T07:08:00;7.23;;;4.93;;
4583;SDS011;2304;47.606;12.186;2023-11-22T07:13:03;7.33;;;5.23;;
4583;SDS011;2304;47.606;12.186;2023-11-22T07:18:05;6.23;;;4.70;;
4583;SDS011;2304;47.606;12.186;2023-11-22T07:23:07;7.10;;;4.40;;
4583;SDS011;2304;47.606;12.186;2023-11-22T07:28:14;5.90;;;4.80;;
4583;SDS011;2304;47.606;12.186;2023-11-22T07:33:16;6.50;;;4.07;;
4583;SDS011;2304;47.606;12.186;2023-11-22T07:38:20;9.47;;;4.83;;
4583;SDS011;2304;47.606;12.186;2023-11-22T07:43:23;6.60;;;4.40;;
4583;SDS011;2304;47.606;12.186;2023-11-22T07:48:25;8.00;;;3.93;;
4583;SDS011;2304;47.606;12.186;2023-11-22T07:53:28;4.50;;;3.40;;
4583;SDS011;2304;47.606;12.186;2023-11-22T07:58:31;5.97;;;4.00;;
4583;SDS011;2304;47.606;12.186;2023-11-22T08:03:33;6.00;;;4.00;;
4583;SDS011;2304;47.606;12.186;2023-11-22T08:08:35;8.97;;;5.47;;
4583;SDS011;2304;47.606;12.186;2023-11-22T08:13:41;6.10;;;4.40;;
4583;SDS011;2304;47.606;12.186;2023-11-22T08:18:44;8.13;;;6.27;;
4583;SDS011;2304;47.606;12.186;2023-11-22T08:23:46;5.90;;;4.47;;
4583;SDS011;2304;47.606;12.186;2023-11-22T08:28:50;5.20;;;4.10;;
4583;SDS011;2304;47.606;12.186;2023-11-22T08:33:51;6.57;;;4.50;;
4583;SDS011;2304;47.606;12.186;2023-11-22T08:38:53;6.60;;;4.60;;
4583;SDS011;2304;47.606;12.186;2023-11-22T08:43:56;6.57;;;4.30;;
4583;SDS011;2304;47.606;12.186;2023-11-22T08:48:59;6.37;;;4.57;;
4583;SDS011;2304;47.606;12.186;2023-11-22T08:54:02;6.60;;;4.30;;
4583;SDS011;2304;47.606;12.186;2023-11-22T08:59:05;5.60;;;4.20;;
4583;SDS011;2304;47.606;12.186;2023-11-22T09:04:07;5.33;;;3.90;;
4583;SDS011;2304;47.606;12.186;2023-11-22T09:09:09;7.70;;;4.70;;
4583;SDS011;2304;47.606;12.186;2023-11-22T09:14:16;7.17;;;4.67;;
4583;SDS011;2304;47.606;12.186;2023-11-22T09:19:20;5.70;;;4.20;;
4583;SDS011;2304;47.606;12.186;2023-11-22T09:24:23;6.60;;;4.60;;
4583;SDS011;2304;47.606;12.186;2023-11-22T09:29:26;9.37;;;4.20;;
4583;SDS011;2304;47.606;12.186;2023-11-22T09:34:28;5.43;;;3.80;;
4583;SDS011;2304;47.606;12.186;2023-11-22T09:39:30;10.43;;;6.60;;
4583;SDS011;2304;47.606;12.186;2023-11-22T09:44:33;6.33;;;4.23;;
4583;SDS011;2304;47.606;12.186;2023-11-22T09:49:35;9.90;;;5.40;;
4583;SDS011;2304;47.606;12.186;2023-11-22T09:54:41;9.83;;;5.73;;
4583;SDS011;2304;47.606;12.186;2023-11-22T09:59:45;25.80;;;12.13;;
4583;SDS011;2304;47.606;12.186;2023-11-22T10:04:52;7.67;;;4.43;;
4583;SDS011;2304;47.606;12.186;2023-11-22T10:09:54;12.13;;;5.80;;
4583;SDS011;2304;47.606;12.186;2023-11-22T10:15:10;19.93;;;8.70;;
4583;SDS011;2304;47.606;12.186;2023-11-22T10:20:13;8.20;;;4.93;;
4583;SDS011;2304;47.606;12.186;2023-11-22T10:25:15;8.23;;;3.70;;
4583;SDS011;2304;47.606;12.186;2023-11-22T10:30:20;5.77;;;3.50;;
4583;SDS011;2304;47.606;12.186;2023-11-22T10:35:22;4.80;;;3.03;;
4583;SDS011;2304;47.606;12.186;2023-11-22T10:40:23;7.07;;;3.20;;
4583;SDS011;2304;47.606;12.186;2023-11-22T10:45:27;11.10;;;4.60;;
4583;SDS011;2304;47.606;12.186;2023-11-22T10:50:31;29.40;;;18.40;;
4583;SDS011;2304;47.606;12.186;2023-11-22T10:55:33;6.43;;;5.07;;
4583;SDS011;2304;47.606;12.186;2023-11-22T11:00:39;29.10;;;17.57;;
4583;SDS011;2304;47.606;12.186;2023-11-22T11:05:45;14.40;;;7.33;;
4583;SDS011;2304;47.606;12.186;2023-11-22T11:10:53;5.00;;;3.63;;
4583;SDS011;2304;47.606;12.186;2023-11-22T11:15:57;12.57;;;10.33;;
4583;SDS011;2304;47.606;12.186;2023-11-22T11:21:03;25.97;;;9.40;;
4583;SDS011;2304;47.606;12.186;2023-11-22T11:26:15;16.43;;;7.00;;
4583;SDS011;2304;47.606;12.186;2023-11-22T11:31:21;10.37;;;6.00;;
4583;SDS011;2304;47.606;12.186;2023-11-22T11:36:24;10.70;;;7.50;;
4583;SDS011;2304;47.606;12.186;2023-11-22T11:41:28;19.10;;;7.97;;
4583;SDS011;2304;47.606;12.186;2023-11-22T11:46:33;11.30;;;7.90;;
4583;SDS011;2304;47.606;12.186;2023-11-22T11:51:35;12.50;;;10.97;;
4583;SDS011;2304;47.606;12.186;2023-11-22T11:56:38;8.33;;;4.40;;
4583;SDS011;2304;47.606;12.186;2023-11-22T12:01:41;9.90;;;5.20;;
4583;SDS011;2304;47.606;12.186;2023-11-22T12:06:43;8.00;;;3.90;;
4583;SDS011;2304;47.606;12.186;2023-11-22T12:11:45;5.63;;;3.63;;
4583;SDS011;2304;47.606;12.186;2023-11-22T12:16:51;5.13;;;3.90;;
4583;SDS011;2304;47.606;12.186;2023-11-22T12:21:54;18.63;;;6.57;;
4583;SDS011;2304;47.606;12.186;2023-11-22T12:26:56;12.47;;;5.60;;
4583;SDS011;2304;47.606;12.186;2023-11-22T12:31:59;6.70;;;4.67;;
4583;SDS011;2304;47.606;12.186;2023-11-22T12:37:01;9.53;;;5.20;;
4583;SDS011;2304;47.606;12.186;2023-11-22T12:42:04;8.83;;;4.10;;
4583;SDS011;2304;47.606;12.186;2023-11-22T12:47:07;6.00;;;3.73;;
4583;SDS011;2304;47.606;12.186;2023-11-22T12:52:11;6.70;;;4.97;;
4583;SDS011;2304;47.606;12.186;2023-11-22T12:57:14;9.30;;;5.93;;
4583;SDS011;2304;47.606;12.186;2023-11-22T13:02:17;5.07;;;3.53;;
4583;SDS011;2304;47.606;12.186;2023-11-22T13:07:19;14.07;;;5.67;;
4583;SDS011;2304;47.606;12.186;2023-11-22T13:12:21;6.30;;;4.13;;
4583;SDS011;2304;47.606;12.186;2023-11-22T13:17:25;4.33;;;3.73;;
4583;SDS011;2304;47.606;12.186;2023-11-22T13:22:28;10.50;;;3.60;;
4583;SDS011;2304;47.606;12.186;2023-11-22T13:27:30;5.93;;;3.60;;
4583;SDS011;2304;47.606;12.186;2023-11-22T13:32:33;5.10;;;4.00;;
4583;SDS011;2304;47.606;12.186;2023-11-22T13:37:35;5.23;;;3.83;;
4583;SDS011;2304;47.606;12.186;2023-11-22T13:42:37;4.90;;;3.57;;
4583;SDS011;2304;47.606;12.186;2023-11-22T13:47:40;5.97;;;4.47;;
4583;SDS011;2304;47.606;12.186;2023-11-22T13:52:44;10.93;;;5.27;;
4583;SDS011;2304;47.606;12.186;2023-11-22T13:57:46;4.77;;;3.90;;
4583;SDS011;2304;47.606;12.186;2023-11-22T14:02:50;7.10;;;4.90;;
4583;SDS011;2304;47.606;12.186;2023-11-22T14:07:55;7.00;;;5.40;;
4583;SDS011;2304;47.606;12.186;2023-11-22T14:12:58;13.90;;;4.70;;
4583;SDS011;2304;47.606;12.186;2023-11-22T14:18:03;7.53;;;4.60;;
4583;SDS011;2304;47.606;12.186;2023-11-22T14:23:05;13.17;;;5.70;;
4583;SDS011;2304;47.606;12.186;2023-11-22T14:28:07;13.33;;;5.93;;
4583;SDS011;2304;47.606;12.186;2023-11-22T14:33:11;7.10;;;4.70;;
4583;SDS011;2304;47.606;12.186;2023-11-22T14:38:13;9.60;;;5.07;;
4583;SDS011;2304;47.606;12.186;2023-11-22T14:43:14;10.13;;;5.93;;
4583;SDS011;2304;47.606;12.186;2023-11-22T14:48:18;7.03;;;5.37;;
4583;SDS011;2304;47.606;12.186;2023-11-22T14:53:19;8.80;;;5.50;;
4583;SDS011;2304;47.606;12.186;2023-11-22T14:58:21;19.73;;;7.60;;
4583;SDS011;2304;47.606;12.186;2023-11-22T15:03:24;11.60;;;10.27;;
4583;SDS011;2304;47.606;12.186;2023-11-22T15:08:27;10.63;;;6.03;;
4583;SDS011;2304;47.606;12.186;2023-11-22T15:13:29;11.13;;;5.90;;
4583;SDS011;2304;47.606;12.186;2023-11-22T15:18:32;8.97;;;6.00;;
4583;SDS011;2304;47.606;12.186;2023-11-22T15:23:35;27.97;;;10.97;;
4583;SDS011;2304;47.606;12.186;2023-11-22T15:28:37;11.10;;;7.70;;
4583;SDS011;2304;47.606;12.186;2023-11-22T15:33:41;16.33;;;7.40;;
4583;SDS011;2304;47.606;12.186;2023-11-22T15:38:42;14.00;;;7.83;;
4583;SDS011;2304;47.606;12.186;2023-11-22T15:43:44;20.03;;;9.37;;
4583;SDS011;2304;47.606;12.186;2023-11-22T15:48:47;30.07;;;11.03;;
4583;SDS011;2304;47.606;12.186;2023-11-22T15:53:49;16.07;;;8.87;;
4583;SDS011;2304;47.606;12.186;2023-11-22T15:58:51;66.17;;;21.73;;
4583;SDS011;2304;47.606;12.186;2023-11-22T16:03:55;18.83;;;14.40;;
4583;SDS011;2304;47.606;12.186;2023-11-22T16:08:57;18.20;;;12.97;;
4583;SDS011;2304;47.606;12.186;2023-11-22T16:13:59;23.23;;;13.70;;
4583;SDS011;2304;47.606;12.186;2023-11-22T16:19:02;13.70;;;11.10;;
4583;SDS011;2304;47.606;12.186;2023-11-22T16:24:05;26.63;;;13.63;;
4583;SDS011;2304;47.606;12.186;2023-11-22T16:29:07;26.90;;;13.83;;
4583;SDS011;2304;47.606;12.186;2023-11-22T16:34:10;17.73;;;10.60;;
4583;SDS011;2304;47.606;12.186;2023-11-22T16:39:12;27.50;;;12.40;;
4583;SDS011;2304;47.606;12.186;2023-11-22T16:44:15;19.27;;;11.13;;
4583;SDS011;2304;47.606;12.186;2023-11-22T16:49:20;17.47;;;7.93;;
4583;SDS011;2304;47.606;12.186;2023-11-22T16:54:22;26.53;;;12.70;;
4583;SDS011;2304;47.606;12.186;2023-11-22T16:59:24;16.30;;;10.27;;
4583;SDS011;2304;47.606;12.186;2023-11-22T17:04:27;38.87;;;15.60;;
4583;SDS011;2304;47.606;12.186;2023-11-22T17:09:29;30.90;;;13.40;;
4583;SDS011;2304;47.606;12.186;2023-11-22T17:14:31;54.47;;;19.87;;
4583;SDS011;2304;47.606;12.186;2023-11-22T17:19:34;13.77;;;7.60;;
4583;SDS011;2304;47.606;12.186;2023-11-22T17:24:36;23.43;;;11.53;;
4583;SDS011;2304;47.606;12.186;2023-11-22T17:29:38;22.83;;;12.90;;
4583;SDS011;2304;47.606;12.186;2023-11-22T17:34:42;19.90;;;11.77;;
4583;SDS011;2304;47.606;12.186;2023-11-22T17:39:43;16.37;;;9.97;;
4583;SDS011;2304;47.606;12.186;2023-11-22T17:44:45;19.73;;;11.83;;
4583;SDS011;2304;47.606;12.186;2023-11-22T17:49:50;16.00;;;11.50;;
4583;SDS011;2304;47.606;12.186;2023-11-22T17:54:52;18.37;;;11.80;;
4583;SDS011;2304;47.606;12.186;2023-11-22T17:59:54;16.43;;;11.00;;
4583;SDS011;2304;47.606;12.186;2023-11-22T18:04:57;19.33;;;11.30;;
4583;SDS011;2304;47.606;12.186;2023-11-22T18:09:59;20.10;;;12.43;;
4583;SDS011;2304;47.606;12.186;2023-11-22T18:15:01;23.73;;;12.80;;
4583;SDS011;2304;47.606;12.186;2023-11-22T18:20:05;17.50;;;12.10;;
4583;SDS011;2304;47.606;12.186;2023-11-22T18:25:09;15.67;;;10.73;;
4583;SDS011;2304;47.606;12.186;2023-11-22T18:30:12;16.73;;;10.03;;
4583;SDS011;2304;47.606;12.186;2023-11-22T18:35:15;14.07;;;10.20;;
4583;SDS011;2304;47.606;12.186;2023-11-22T18:40:17;15.60;;;10.93;;
4583;SDS011;2304;47.606;12.186;2023-11-22T18:45:19;14.70;;;10.17;;
4583;SDS011;2304;47.606;12.186;2023-11-22T18:50:23;14.00;;;9.97;;
4583;SDS011;2304;47.606;12.186;2023-11-22T18:55:24;12.20;;;9.10;;
4583;SDS011;2304;47.606;12.186;2023-11-22T19:00:26;18.80;;;11.60;;
4583;SDS011;2304;47.606;12.186;2023-11-22T19:05:29;34.00;;;18.53;;
4583;SDS011;2304;47.606;12.186;2023-11-22T19:10:32;44.60;;;22.17;;
4583;SDS011;2304;47.606;12.186;2023-11-22T19:15:40;98.43;;;45.40;;
4583;SDS011;2304;47.606;12.186;2023-11-22T19:20:44;61.60;;;26.23;;
4583;SDS011;2304;47.606;12.186;2023-11-22T19:25:46;25.90;;;15.57;;
4583;SDS011;2304;47.606;12.186;2023-11-22T19:30:49;15.63;;;11.47;;
4583;SDS011;2304;47.606;12.186;2023-11-22T19:35:52;18.17;;;11.60;;
4583;SDS011;2304;47.606;12.186;2023-11-22T19:40:54;30.33;;;12.40;;
4583;SDS011;2304;47.606;12.186;2023-11-22T19:45:56;30.17;;;16.90;;
4583;SDS011;2304;47.606;12.186;2023-11-22T19:50:59;15.83;;;10.70;;
4583;SDS011;2304;47.606;12.186;2023-11-22T19:56:01;14.73;;;10.00;;
4583;SDS011;2304;47.606;12.186;2023-11-22T20:01:03;29.27;;;16.70;;
4583;SDS011;2304;47.606;12.186;2023-11-22T20:06:07;14.20;;;10.70;;
4583;SDS011;2304;47.606;12.186;2023-11-22T20:11:11;13.93;;;9.60;;
4583;SDS011;2304;47.606;12.186;2023-11-22T20:16:13;14.50;;;10.90;;
4583;SDS011;2304;47.606;12.186;2023-11-22T20:21:16;13.83;;;9.77;;
4583;SDS011;2304;47.606;12.186;2023-11-22T20:26:19;13.50;;;9.47;;
4583;SDS011;2304;47.606;12.186;2023-11-22T20:31:22;20.50;;;12.70;;
4583;SDS011;2304;47.606;12.186;2023-11-22T20:36:25;16.90;;;10.57;;
4583;SDS011;2304;47.606;12.186;2023-11-22T20:41:27;15.20;;;11.13;;
4583;SDS011;2304;47.606;12.186;2023-11-22T20:46:31;17.77;;;10.83;;
4583;SDS011;2304;47.606;12.186;2023-11-22T20:51:34;14.23;;;10.33;;
4583;SDS011;2304;47.606;12.186;2023-11-22T20:56:36;12.97;;;9.30;;
4583;SDS011;2304;47.606;12.186;2023-11-22T21:01:37;13.57;;;9.97;;
4583;SDS011;2304;47.606;12.186;2023-11-22T21:06:41;13.77;;;9.60;;
4583;SDS011;2304;47.606;12.186;2023-11-22T21:11:43;12.13;;;9.90;;
4583;SDS011;2304;47.606;12.186;2023-11-22T21:16:45;13.03;;;10.33;;
4583;SDS011;2304;47.606;12.186;2023-11-22T21:21:48;15.13;;;11.10;;
4583;SDS011;2304;47.606;12.186;2023-11-22T21:26:50;15.87;;;10.67;;
4583;SDS011;2304;47.606;12.186;2023-11-22T21:31:53;13.30;;;10.53;;
4583;SDS011;2304;47.606;12.186;2023-11-22T21:36:56;14.90;;;10.97;;
4583;SDS011;2304;47.606;12.186;2023-11-22T21:41:58;17.07;;;11.80;;
4583;SDS011;2304;47.606;12.186;2023-11-22T21:47:01;17.10;;;11.17;;
4583;SDS011;2304;47.606;12.186;2023-11-22T21:52:05;12.87;;;10.13;;
4583;SDS011;2304;47.606;12.186;2023-11-22T21:57:07;14.50;;;10.23;;
4583;SDS011;2304;47.606;12.186;2023-11-22T22:02:09;14.70;;;10.97;;
4583;SDS011;2304;47.606;12.186;2023-11-22T22:07:12;15.33;;;10.87;;
4583;SDS011;2304;47.606;12.186;2023-11-22T22:12:14;22.50;;;12.10;;
4583;SDS011;2304;47.606;12.186;2023-11-22T22:17:16;20.07;;;11.27;;
4583;SDS011;2304;47.606;12.186;2023-11-22T22:22:19;15.77;;;11.10;;
4583;SDS011;2304;47.606;12.186;2023-11-22T22:27:21;14.70;;;10.37;;
4583;SDS011;2304;47.606;12.186;2023-11-22T22:32:23;15.53;;;10.40;;
4583;SDS011;2304;47.606;12.186;2023-11-22T22:37:28;14.73;;;11.00;;
4583;SDS011;2304;47.606;12.186;2023-11-22T22:42:29;32.37;;;13.50;;
4583;SDS011;2304;47.606;12.186;2023-11-22T22:47:31;22.30;;;11.20;;
4583;SDS011;2304;47.606;12.186;2023-11-22T22:52:34;14.80;;;10.90;;
4583;SDS011;2304;47.606;12.186;2023-11-22T22:57:36;12.97;;;9.70;;
4583;SDS011;2304;47.606;12.186;2023-11-22T23:02:39;20.63;;;11.70;;
4583;SDS011;2304;47.606;12.186;2023-11-22T23:07:42;19.23;;;11.10;;
4583;SDS011;2304;47.606;12.186;2023-11-22T23:12:44;22.47;;;12.33;;
4583;SDS011;2304;47.606;12.186;2023-11-22T23:17:46;16.20;;;10.80;;
4583;SDS011;2304;47.606;12.186;2023-11-22T23:22:49;15.30;;;11.13;;
4583;SDS011;2304;47.606;12.186;2023-11-22T23:27:52;16.60;;;11.10;;
4583;SDS011;2304;47.606;12.186;2023-11-22T23:32:54;14.57;;;11.50;;
4583;SDS011;2304;47.606;12.186;2023-11-22T23:37:58;15.80;;;11.40;;
4583;SDS011;2304;47.606;12.186;2023-11-22T23:42:59;15.40;;;10.47;;
4583;SDS011;2304;47.606;12.186;2023-11-22T23:48:03;20.03;;;12.47;;
4583;SDS011;2304;47.606;12.186;2023-11-22T23:53:07;16.93;;;11.90;;
4583;SDS011;2304;47.606;12.186;2023-11-22T23:58:09;15.10;;;10.60;;
